createdAt,value
2023-03-29T00:00:41.216Z,100467.60
2023-03-29T00:03:17.692Z,100466.60
2023-03-29T00:05:45.762Z,100468.40
2023-03-29T00:08:14.781Z,100465.20
2023-03-29T00:10:42.778Z,100460.60
2023-03-29T00:13:10.843Z,100461.20
2023-03-29T00:15:38.864Z,100461.20
2023-03-29T00:18:06.671Z,100459.00
2023-03-29T00:20:36.648Z,100458.20
2023-03-29T00:23:04.470Z,100459.40
2023-03-29T00:25:32.287Z,100460.00
2023-03-29T00:28:02.325Z,100456.40
2023-03-29T00:30:30.114Z,100448.80
2023-03-29T00:32:57.930Z,100444.80
2023-03-29T00:35:27.178Z,100445.20
2023-03-29T00:37:55.199Z,100447.40
2023-03-29T00:40:23.666Z,100444.80
2023-03-29T00:42:51.508Z,100441.00
2023-03-29T00:45:25.378Z,100446.00
2023-03-29T00:48:02.897Z,100439.40
2023-03-29T00:50:42.184Z,100446.20
2023-03-29T00:53:17.651Z,100444.60
2023-03-29T00:56:07.396Z,100435.00
2023-03-29T00:58:49.757Z,100440.60
2023-03-29T01:01:28.413Z,100438.80
2023-03-29T01:04:08.587Z,100436.80
2023-03-29T01:06:43.365Z,100435.40
2023-03-29T01:09:13.910Z,100432.60
2023-03-29T01:11:51.400Z,100437.00
2023-03-29T01:14:29.954Z,100436.80
2023-03-29T01:16:57.941Z,100438.40
2023-03-29T01:19:34.093Z,100434.00
2023-03-29T01:22:56.960Z,100427.20
2023-03-29T01:25:37.407Z,100418.00
2023-03-29T01:28:08.778Z,100415.00
2023-03-29T01:30:45.244Z,100408.20
2023-03-29T01:33:23.458Z,100405.80
2023-03-29T01:36:21.576Z,100397.20
2023-03-29T01:38:57.106Z,100394.00
2023-03-29T01:41:39.736Z,100388.40
2023-03-29T01:44:23.126Z,100383.00
2023-03-29T01:47:04.652Z,100378.60
2023-03-29T01:49:42.290Z,100385.20
2023-03-29T01:52:20.403Z,100380.00
2023-03-29T01:54:59.518Z,100367.40
2023-03-29T01:57:27.681Z,100368.40
2023-03-29T01:59:58.885Z,100364.20
2023-03-29T02:02:30.143Z,100363.60
2023-03-29T02:04:59.343Z,100367.00
2023-03-29T02:07:32.460Z,100372.80
2023-03-29T02:10:02.116Z,100370.60
2023-03-29T02:12:31.136Z,100365.40
2023-03-29T02:15:00.830Z,100372.20
2023-03-29T02:17:30.591Z,100380.00
2023-03-29T02:20:14.500Z,100384.20
2023-03-29T02:23:21.412Z,100385.00
2023-03-29T02:25:53.704Z,100374.60
2023-03-29T02:28:24.816Z,100377.20
2023-03-29T02:31:51.874Z,100371.20
2023-03-29T02:34:26.826Z,100365.20
2023-03-29T02:37:06.879Z,100369.80
2023-03-29T02:39:36.853Z,100362.80
2023-03-29T02:42:06.190Z,100356.00
2023-03-29T02:44:39.839Z,100347.00
2023-03-29T02:47:19.529Z,100354.00
2023-03-29T02:49:47.509Z,100358.00
2023-03-29T02:52:24.018Z,100355.00
2023-03-29T02:54:54.457Z,100351.40
2023-03-29T02:57:26.535Z,100354.60
2023-03-29T02:59:57.567Z,100353.40
2023-03-29T03:02:29.684Z,100350.80
2023-03-29T03:04:57.813Z,100348.00
2023-03-29T03:07:25.620Z,100348.20
2023-03-29T03:09:53.422Z,100344.60
2023-03-29T03:12:21.506Z,100339.00
2023-03-29T03:14:49.896Z,100348.40
2023-03-29T03:17:18.896Z,100340.60
2023-03-29T03:19:47.405Z,100339.40
2023-03-29T03:22:15.265Z,100338.80
2023-03-29T03:24:43.951Z,100339.40
2023-03-29T03:27:12.438Z,100334.80
2023-03-29T03:29:41.456Z,100326.20
2023-03-29T03:32:38.554Z,100327.20
2023-03-29T03:35:29.632Z,100313.20
2023-03-29T03:37:57.893Z,100312.20
2023-03-29T03:40:27.867Z,100304.20
2023-03-29T03:42:56.276Z,100294.60
2023-03-29T03:45:24.782Z,100289.40
2023-03-29T03:48:01.855Z,100295.00
2023-03-29T03:50:59.138Z,100293.00
2023-03-29T03:53:30.842Z,100291.60
2023-03-29T03:56:21.578Z,100298.60
2023-03-29T03:59:12.254Z,100310.20
2023-03-29T04:02:00.560Z,100308.60
2023-03-29T04:04:28.977Z,100303.40
2023-03-29T04:07:17.952Z,100304.60
2023-03-29T04:10:13.515Z,100304.40
2023-03-29T04:13:13.582Z,100299.00
2023-03-29T04:16:01.843Z,100305.40
2023-03-29T04:18:30.281Z,100307.60
2023-03-29T04:21:00.599Z,100306.60
2023-03-29T04:23:28.989Z,100303.60
2023-03-29T04:25:56.848Z,100301.40
2023-03-29T04:28:48.588Z,100291.20
2023-03-29T04:31:21.908Z,100281.60
2023-03-29T04:34:16.405Z,100282.60
2023-03-29T04:36:44.516Z,100280.40
2023-03-29T04:39:18.354Z,100277.40
2023-03-29T04:41:47.266Z,100278.80
2023-03-29T04:44:20.568Z,100279.40
2023-03-29T04:46:48.953Z,100283.80
2023-03-29T04:49:52.120Z,100282.80
2023-03-29T04:52:33.215Z,100283.40
2023-03-29T04:55:02.720Z,100276.80
2023-03-29T04:57:53.504Z,100267.00
2023-03-29T05:00:27.601Z,100273.60
2023-03-29T05:02:55.507Z,100279.00
2023-03-29T05:05:24.144Z,100278.80
2023-03-29T05:07:52.212Z,100284.00
2023-03-29T05:10:24.304Z,100284.40
2023-03-29T05:12:54.104Z,100278.40
2023-03-29T05:15:22.612Z,100281.80
2023-03-29T05:17:50.560Z,100282.40
2023-03-29T05:20:18.436Z,100284.20
2023-03-29T05:22:48.665Z,100280.80
2023-03-29T05:25:31.271Z,100278.00
2023-03-29T05:27:59.380Z,100279.20
2023-03-29T05:30:27.200Z,100280.60
2023-03-29T05:33:03.008Z,100286.00
2023-03-29T05:35:31.399Z,100286.40
2023-03-29T05:38:00.801Z,100271.20
2023-03-29T05:40:29.628Z,100268.80
2023-03-29T05:43:16.493Z,100276.40
2023-03-29T05:45:44.483Z,100275.40
2023-03-29T05:48:13.481Z,100272.40
2023-03-29T05:50:48.718Z,100271.60
2023-03-29T05:53:17.765Z,100273.80
2023-03-29T05:55:47.295Z,100272.20
2023-03-29T05:58:18.058Z,100276.40
2023-03-29T06:00:49.633Z,100262.40
2023-03-29T06:03:36.660Z,100276.00
2023-03-29T06:06:05.696Z,100284.80
2023-03-29T06:08:35.133Z,100290.00
2023-03-29T06:11:24.279Z,100284.80
2023-03-29T06:14:13.804Z,100281.40
2023-03-29T06:16:47.787Z,100285.00
2023-03-29T06:19:16.209Z,100269.40
2023-03-29T06:21:44.225Z,100267.40
2023-03-29T06:24:14.126Z,100272.00
2023-03-29T06:26:47.029Z,100273.00
2023-03-29T06:29:15.657Z,100274.00
2023-03-29T06:31:43.772Z,100269.20
2023-03-29T06:34:22.522Z,100266.40
2023-03-29T06:37:00.610Z,100253.80
2023-03-29T06:39:30.146Z,100253.20
2023-03-29T06:42:36.947Z,100241.40
2023-03-29T06:45:29.641Z,100248.40
2023-03-29T06:47:58.545Z,100243.60
2023-03-29T06:50:27.180Z,100242.60
2023-03-29T06:53:18.441Z,100246.40
2023-03-29T06:55:53.829Z,100242.60
2023-03-29T06:58:41.981Z,100237.40
2023-03-29T07:01:28.660Z,100235.60
2023-03-29T07:04:04.933Z,100233.40
2023-03-29T07:06:39.060Z,100240.00
2023-03-29T07:09:07.141Z,100243.40
2023-03-29T07:11:51.438Z,100249.40
2023-03-29T07:14:26.755Z,100252.80
2023-03-29T07:16:56.200Z,100249.40
2023-03-29T07:19:30.347Z,100253.60
2023-03-29T07:22:22.205Z,100257.60
2023-03-29T07:24:53.303Z,100257.60
2023-03-29T07:27:22.300Z,100262.00
2023-03-29T07:29:50.193Z,100267.80
2023-03-29T07:32:18.552Z,100261.60
2023-03-29T07:34:48.000Z,100252.00
2023-03-29T07:37:22.555Z,100248.80
2023-03-29T07:39:51.490Z,100248.00
2023-03-29T07:42:41.444Z,100240.40
2023-03-29T07:45:13.621Z,100230.20
2023-03-29T07:47:57.704Z,100218.20
2023-03-29T07:50:27.066Z,100214.60
2023-03-29T07:52:57.628Z,100213.20
2023-03-29T07:55:25.611Z,100208.40
2023-03-29T07:58:01.705Z,100205.40
2023-03-29T08:00:29.871Z,100208.80
2023-03-29T08:03:13.174Z,100217.60
2023-03-29T08:05:42.262Z,100205.60
2023-03-29T08:08:16.284Z,100200.00
2023-03-29T08:10:53.849Z,100193.40
2023-03-29T08:13:47.931Z,100192.60
2023-03-29T08:16:27.984Z,100197.20
2023-03-29T08:19:04.852Z,100194.60
2023-03-29T08:21:53.924Z,100190.80
2023-03-29T08:24:23.652Z,100190.60
2023-03-29T08:26:56.275Z,100191.20
2023-03-29T08:29:27.044Z,100191.20
2023-03-29T08:31:56.407Z,100180.20
2023-03-29T08:34:24.794Z,100183.00
2023-03-29T08:37:11.340Z,100184.80
2023-03-29T08:39:43.183Z,100182.20
2023-03-29T08:42:55.336Z,100176.00
2023-03-29T08:45:35.470Z,100168.40
2023-03-29T08:48:22.562Z,100167.20
2023-03-29T08:51:00.099Z,100173.40
2023-03-29T08:53:48.723Z,100166.00
2023-03-29T08:56:34.380Z,100162.40
2023-03-29T08:59:27.579Z,100157.20
2023-03-29T09:01:59.729Z,100145.60
2023-03-29T09:04:32.901Z,100144.20
2023-03-29T09:07:26.444Z,100149.40
2023-03-29T09:09:55.875Z,100148.20
2023-03-29T09:13:16.722Z,100138.20
2023-03-29T09:16:01.182Z,100144.60
2023-03-29T09:19:04.897Z,100138.40
2023-03-29T09:21:55.949Z,100138.80
2023-03-29T09:24:33.927Z,100143.00
2023-03-29T09:27:32.369Z,100131.20
2023-03-29T09:30:27.456Z,100124.40
2023-03-29T09:33:53.484Z,100119.20
2023-03-29T09:36:50.342Z,100105.80
2023-03-29T09:39:21.213Z,100107.00
2023-03-29T09:41:59.828Z,100104.80
2023-03-29T09:44:57.250Z,100111.60
2023-03-29T09:47:40.775Z,100101.00
2023-03-29T09:50:30.203Z,100099.80
2023-03-29T09:53:00.626Z,100098.00
2023-03-29T09:55:33.833Z,100092.20
2023-03-29T09:58:31.071Z,100086.00
2023-03-29T10:01:06.253Z,100071.00
2023-03-29T10:03:35.080Z,100067.20
2023-03-29T10:06:12.568Z,100075.40
2023-03-29T10:08:50.451Z,100073.20
2023-03-29T10:11:38.450Z,100074.40
2023-03-29T10:14:16.750Z,100070.20
2023-03-29T10:16:48.893Z,100061.80
2023-03-29T10:19:34.771Z,100062.80
2023-03-29T10:22:16.916Z,100066.40
2023-03-29T10:24:51.682Z,100062.60
2023-03-29T10:27:24.646Z,100054.60
2023-03-29T10:29:55.057Z,100048.80
2023-03-29T10:32:23.021Z,100054.40
2023-03-29T10:34:52.570Z,100052.40
2023-03-29T10:37:23.208Z,100050.20
2023-03-29T10:39:51.942Z,100047.20
2023-03-29T10:42:24.311Z,100038.00
2023-03-29T10:44:59.050Z,100040.00
2023-03-29T10:47:34.349Z,100032.40
2023-03-29T10:50:07.503Z,100025.80
2023-03-29T10:52:35.324Z,100012.20
2023-03-29T10:55:03.522Z,100005.00
2023-03-29T10:57:52.257Z,100004.40
2023-03-29T11:00:54.567Z,100006.60
2023-03-29T11:03:53.430Z,100005.60
2023-03-29T11:07:12.988Z,100001.80
2023-03-29T11:10:04.623Z,100005.40
2023-03-29T11:12:53.711Z,99991.80
2023-03-29T11:15:21.451Z,99979.40
2023-03-29T11:18:16.206Z,99980.20
2023-03-29T11:21:12.594Z,99984.80
2023-03-29T11:24:17.644Z,99985.60
2023-03-29T11:27:16.055Z,99984.00
2023-03-29T11:30:20.728Z,99980.60
2023-03-29T11:33:07.412Z,99977.00
2023-03-29T11:35:58.433Z,99968.80
2023-03-29T11:38:42.796Z,99964.60
2023-03-29T11:41:21.866Z,99966.00
2023-03-29T11:44:24.426Z,99964.20
2023-03-29T11:47:04.845Z,99957.60
2023-03-29T11:49:43.044Z,99952.00
2023-03-29T11:52:24.494Z,99947.00
2023-03-29T11:55:04.648Z,99960.20
2023-03-29T11:57:38.186Z,99958.20
2023-03-29T12:00:24.206Z,99966.80
2023-03-29T12:03:15.270Z,99971.20
2023-03-29T12:05:54.713Z,99954.60
2023-03-29T12:08:27.000Z,99952.60
2023-03-29T12:11:04.506Z,99962.40
2023-03-29T12:14:10.712Z,99966.40
2023-03-29T12:16:52.033Z,99957.20
2023-03-29T12:19:25.878Z,99954.00
2023-03-29T12:21:57.166Z,99955.40
2023-03-29T12:24:31.119Z,99958.00
2023-03-29T12:27:24.121Z,99952.60
2023-03-29T12:30:44.716Z,99950.20
2023-03-29T12:33:24.874Z,99947.60
2023-03-29T12:36:22.517Z,99935.40
2023-03-29T12:39:18.824Z,99930.80
2023-03-29T12:42:31.405Z,99926.00
2023-03-29T12:45:34.997Z,99914.40
2023-03-29T12:48:03.564Z,99908.20
2023-03-29T12:50:43.003Z,99912.40
2023-03-29T12:53:30.815Z,99905.20
2023-03-29T12:56:04.313Z,99902.80
2023-03-29T12:58:52.834Z,99910.20
2023-03-29T13:01:35.694Z,99909.20
2023-03-29T13:04:36.368Z,99901.60
2023-03-29T13:07:07.077Z,99897.00
2023-03-29T13:09:57.594Z,99899.40
2023-03-29T13:12:35.444Z,99884.60
2023-03-29T13:15:26.898Z,99882.00
2023-03-29T13:18:26.287Z,99878.20
2023-03-29T13:21:25.087Z,99875.20
2023-03-29T13:24:22.325Z,99875.40
2023-03-29T13:26:56.151Z,99857.00
2023-03-29T13:29:30.264Z,99855.80
2023-03-29T13:32:40.650Z,99853.40
2023-03-29T13:35:29.597Z,99846.40
2023-03-29T13:38:13.251Z,99852.20
2023-03-29T13:40:42.939Z,99844.20
2023-03-29T13:43:19.829Z,99838.60
2023-03-29T13:45:56.813Z,99829.60
2023-03-29T13:48:36.788Z,99827.60
2023-03-29T13:51:38.439Z,99830.00
2023-03-29T13:54:34.150Z,99847.40
2023-03-29T13:57:31.703Z,99835.00
2023-03-29T14:00:11.875Z,99846.00
2023-03-29T14:02:52.462Z,99835.00
2023-03-29T14:05:30.029Z,99850.20
2023-03-29T14:08:13.740Z,99843.20
2023-03-29T14:10:45.189Z,99829.40
2023-03-29T14:13:18.167Z,99836.00
2023-03-29T14:16:04.378Z,99837.80
2023-03-29T14:18:37.244Z,99840.00
2023-03-29T14:21:05.905Z,99827.40
2023-03-29T14:23:37.449Z,99829.60
2023-03-29T14:26:15.258Z,99833.40
2023-03-29T14:28:56.672Z,99823.60
2023-03-29T14:31:29.787Z,99825.20
2023-03-29T14:34:00.452Z,99825.20
2023-03-29T14:36:32.361Z,99820.60
2023-03-29T14:39:14.297Z,99810.60
2023-03-29T14:41:50.411Z,99810.80
2023-03-29T14:44:22.485Z,99811.40
2023-03-29T14:46:50.472Z,99821.20
2023-03-29T14:49:22.264Z,99817.00
2023-03-29T14:51:52.221Z,99803.40
2023-03-29T14:54:26.750Z,99796.40
2023-03-29T14:56:55.859Z,99786.80
2023-03-29T14:59:35.208Z,99781.40
2023-03-29T15:02:04.469Z,99778.00
2023-03-29T15:04:37.424Z,99768.60
2023-03-29T15:07:05.480Z,99765.60
2023-03-29T15:09:35.450Z,99763.00
2023-03-29T15:12:03.957Z,99757.20
2023-03-29T15:14:34.809Z,99760.40
2023-03-29T15:17:16.219Z,99753.40
2023-03-29T15:19:44.032Z,99743.60
2023-03-29T15:22:12.066Z,99743.80
2023-03-29T15:24:48.636Z,99734.00
2023-03-29T15:27:19.708Z,99735.20
2023-03-29T15:29:48.361Z,99723.80
2023-03-29T15:32:34.617Z,99718.00
2023-03-29T15:35:07.997Z,99711.40
2023-03-29T15:37:36.983Z,99705.60
2023-03-29T15:40:09.654Z,99691.00
2023-03-29T15:42:37.728Z,99687.40
2023-03-29T15:45:07.325Z,99686.40
2023-03-29T15:47:35.532Z,99690.40
2023-03-29T15:50:03.543Z,99691.40
2023-03-29T15:52:31.763Z,99689.00
2023-03-29T15:54:59.548Z,99686.00
2023-03-29T15:57:27.454Z,99695.80
2023-03-29T15:59:55.354Z,99697.80
2023-03-29T16:02:24.778Z,99700.00
2023-03-29T16:04:53.578Z,99686.40
2023-03-29T16:07:21.708Z,99685.40
2023-03-29T16:09:49.626Z,99693.40
2023-03-29T16:12:17.522Z,99695.60
2023-03-29T16:14:45.393Z,99682.00
2023-03-29T16:17:14.147Z,99689.60
2023-03-29T16:19:41.968Z,99690.00
2023-03-29T16:22:09.940Z,99684.60
2023-03-29T16:24:38.676Z,99672.00
2023-03-29T16:27:06.657Z,99668.20
2023-03-29T16:29:34.909Z,99665.60
2023-03-29T16:32:05.335Z,99663.00
2023-03-29T16:34:36.054Z,99665.60
2023-03-29T16:37:04.006Z,99651.40
2023-03-29T16:39:31.756Z,99644.80
2023-03-29T16:41:59.761Z,99642.80
2023-03-29T16:44:27.924Z,99635.60
2023-03-29T16:46:58.241Z,99627.20
2023-03-29T16:49:26.339Z,99613.00
2023-03-29T16:51:54.205Z,99612.40
2023-03-29T16:54:22.246Z,99602.80
2023-03-29T16:56:51.092Z,99614.40
2023-03-29T16:59:19.319Z,99616.20
2023-03-29T17:01:47.348Z,99601.20
2023-03-29T17:04:16.072Z,99593.60
2023-03-29T17:06:43.884Z,99592.80
2023-03-29T17:09:11.743Z,99602.60
2023-03-29T17:11:39.683Z,99594.60
2023-03-29T17:14:08.872Z,99601.00
2023-03-29T17:16:36.736Z,99595.40
2023-03-29T17:19:04.684Z,99587.00
2023-03-29T17:21:32.533Z,99588.20
2023-03-29T17:24:00.493Z,99591.00
2023-03-29T17:26:28.562Z,99580.20
2023-03-29T17:28:56.620Z,99586.20
2023-03-29T17:31:24.815Z,99581.00
2023-03-29T17:33:53.331Z,99576.60
2023-03-29T17:36:24.523Z,99575.00
2023-03-29T17:38:55.124Z,99573.80
2023-03-29T17:41:23.373Z,99567.20
2023-03-29T17:43:52.050Z,99565.00
2023-03-29T17:46:23.317Z,99568.20
2023-03-29T17:48:52.531Z,99567.60
2023-03-29T17:51:21.386Z,99566.60
2023-03-29T17:53:50.029Z,99562.60
2023-03-29T17:56:22.846Z,99550.80
2023-03-29T17:58:50.963Z,99546.60
2023-03-29T18:01:19.666Z,99550.80
2023-03-29T18:03:48.965Z,99554.60
2023-03-29T18:06:20.329Z,99556.00
2023-03-29T18:08:48.322Z,99548.20
2023-03-29T18:11:22.654Z,99545.00
2023-03-29T18:13:53.086Z,99547.80
2023-03-29T18:16:22.819Z,99543.80
2023-03-29T18:18:51.228Z,99545.80
2023-03-29T18:21:21.203Z,99552.80
2023-03-29T18:23:54.348Z,99558.80
2023-03-29T18:26:25.491Z,99550.80
2023-03-29T18:28:54.659Z,99549.80
2023-03-29T18:31:23.200Z,99558.20
2023-03-29T18:33:51.615Z,99552.00
2023-03-29T18:36:20.432Z,99551.40
2023-03-29T18:38:49.006Z,99551.60
2023-03-29T18:41:17.017Z,99556.00
2023-03-29T18:43:46.823Z,99552.00
2023-03-29T18:46:15.092Z,99536.00
2023-03-29T18:48:43.114Z,99525.60
2023-03-29T18:51:12.607Z,99527.40
2023-03-29T18:53:42.968Z,99521.00
2023-03-29T18:56:11.832Z,99525.40
2023-03-29T18:58:40.712Z,99522.00
2023-03-29T19:01:11.272Z,99522.80
2023-03-29T19:03:41.492Z,99512.60
2023-03-29T19:06:12.311Z,99499.40
2023-03-29T19:08:42.553Z,99493.80
2023-03-29T19:11:14.853Z,99491.00
2023-03-29T19:13:46.729Z,99487.40
2023-03-29T19:16:15.661Z,99485.80
2023-03-29T19:18:45.175Z,99482.60
2023-03-29T19:21:14.303Z,99487.80
2023-03-29T19:23:42.715Z,99471.80
2023-03-29T19:26:11.854Z,99472.20
2023-03-29T19:28:40.545Z,99468.60
2023-03-29T19:31:08.942Z,99475.60
2023-03-29T19:33:37.310Z,99467.40
2023-03-29T19:36:06.848Z,99464.80
2023-03-29T19:38:36.870Z,99461.80
2023-03-29T19:41:09.304Z,99450.20
2023-03-29T19:43:38.655Z,99450.00
2023-03-29T19:46:13.651Z,99445.40
2023-03-29T19:48:42.231Z,99438.40
2023-03-29T19:51:11.126Z,99436.60
2023-03-29T19:53:41.919Z,99432.60
2023-03-29T19:56:11.238Z,99433.40
2023-03-29T19:58:39.421Z,99440.80
2023-03-29T20:01:11.305Z,99431.40
2023-03-29T20:03:43.444Z,99440.80
2023-03-29T20:06:12.696Z,99437.60
2023-03-29T20:08:41.144Z,99439.20
2023-03-29T20:11:12.653Z,99432.00
2023-03-29T20:13:45.535Z,99426.20
2023-03-29T20:16:19.001Z,99417.20
2023-03-29T20:18:47.045Z,99411.20
2023-03-29T20:21:18.677Z,99406.00
2023-03-29T20:23:47.157Z,99411.00
2023-03-29T20:26:15.387Z,99409.60
2023-03-29T20:28:43.395Z,99404.60
2023-03-29T20:31:11.815Z,99400.40
2023-03-29T20:33:43.978Z,99397.40
2023-03-29T20:36:13.693Z,99401.60
2023-03-29T20:38:42.277Z,99398.60
2023-03-29T20:41:11.637Z,99405.60
2023-03-29T20:43:41.777Z,99401.40
2023-03-29T20:46:24.320Z,99398.80
2023-03-29T20:48:54.121Z,99393.60
2023-03-29T20:51:32.284Z,99393.80
2023-03-29T20:54:06.586Z,99393.80
2023-03-29T20:56:42.784Z,99393.20
2023-03-29T20:59:12.643Z,99392.80
2023-03-29T21:01:42.853Z,99397.20
2023-03-29T21:04:11.721Z,99397.80
2023-03-29T21:06:39.912Z,99393.60
2023-03-29T21:09:08.530Z,99384.60
2023-03-29T21:11:36.525Z,99383.20
2023-03-29T21:14:04.721Z,99370.60
2023-03-29T21:16:32.709Z,99370.40
2023-03-29T21:19:00.769Z,99376.00
2023-03-29T21:21:29.865Z,99387.80
2023-03-29T21:23:58.632Z,99383.80
2023-03-29T21:26:27.423Z,99384.20
2023-03-29T21:28:55.277Z,99376.20
2023-03-29T21:31:23.167Z,99376.80
2023-03-29T21:33:53.093Z,99371.20
2023-03-29T21:36:21.114Z,99367.60
2023-03-29T21:38:50.313Z,99373.40
2023-03-29T21:41:19.976Z,99369.00
2023-03-29T21:43:48.304Z,99378.20
2023-03-29T21:46:16.396Z,99375.60
2023-03-29T21:48:44.275Z,99369.80
2023-03-29T21:51:12.106Z,99374.40
2023-03-29T21:53:39.966Z,99371.60
2023-03-29T21:56:08.408Z,99360.00
2023-03-29T21:58:36.433Z,99362.00
2023-03-29T22:01:07.185Z,99357.20
2023-03-29T22:03:35.763Z,99350.40
2023-03-29T22:06:09.399Z,99354.60
2023-03-29T22:08:40.517Z,99353.20
2023-03-29T22:11:14.612Z,99349.00
2023-03-29T22:13:44.003Z,99356.60
2023-03-29T22:16:14.133Z,99349.80
2023-03-29T22:18:45.999Z,99346.80
2023-03-29T22:21:17.498Z,99347.00
2023-03-29T22:23:54.102Z,99332.60
2023-03-29T22:26:27.757Z,99324.60
2023-03-29T22:28:58.057Z,99323.60
2023-03-29T22:31:29.305Z,99319.60
2023-03-29T22:33:58.603Z,99324.60
2023-03-29T22:36:30.670Z,99319.80
2023-03-29T22:38:58.559Z,99319.60
2023-03-29T22:41:28.148Z,99322.00
2023-03-29T22:43:59.151Z,99313.80
2023-03-29T22:46:27.580Z,99317.40
2023-03-29T22:48:55.846Z,99316.60
2023-03-29T22:51:23.712Z,99311.80
2023-03-29T22:53:51.607Z,99309.00
2023-03-29T22:56:19.784Z,99318.80
2023-03-29T22:58:47.602Z,99317.60
2023-03-29T23:01:15.822Z,99308.20
2023-03-29T23:03:43.742Z,99306.60
2023-03-29T23:06:11.865Z,99311.60
2023-03-29T23:08:39.862Z,99307.40
2023-03-29T23:11:08.334Z,99310.80
2023-03-29T23:13:38.733Z,99309.40
2023-03-29T23:16:07.723Z,99292.20
2023-03-29T23:18:37.752Z,99303.80
2023-03-29T23:21:06.468Z,99292.80
2023-03-29T23:23:35.757Z,99300.80
2023-03-29T23:26:03.992Z,99298.80
2023-03-29T23:28:34.276Z,99302.40
2023-03-29T23:31:12.548Z,99295.60
2023-03-29T23:33:42.531Z,99290.40
2023-03-29T23:36:17.302Z,99293.00
2023-03-29T23:38:47.071Z,99288.20
2023-03-29T23:41:16.723Z,99287.80
2023-03-29T23:43:47.039Z,99300.60
2023-03-29T23:46:18.740Z,99289.60
2023-03-29T23:48:49.149Z,99291.60
2023-03-29T23:51:23.077Z,99287.40
2023-03-29T23:53:51.751Z,99292.00
2023-03-29T23:56:21.528Z,99286.80
2023-03-29T23:58:50.412Z,99288.20
